Weather at Kaklıç Airport

Public forecast

Using degrees Celsius for public forecast. Weather courtesy of forecast.io.

Current aviation weather report (METAR) for Kaklıç Airport

Report is more than 6 hours old.

Retrieved 2022/01/27 12:50 UTC (17 hours ago):

LTFA 271250Z 01005KT 320V050 9999 FEW040 09/M04 Q1024 RMK RWY17 00000KT

Closest aviation forecast (TAF) to Kaklıç Airport

Closest forecast is Adnan Menderes International Airport, 15.9 nm (29.5 km) SSE. Retrieved 2022-01-28 00:03 UTC (6 hours ago):

TAF LTBJ 272240Z 2800/2824 VRB02KT CAVOK BECMG 2800/2803 FEW030 SCT080 PROB40 2803/2806 4000 BR BECMG 2806/2809 CAVOK BECMG 2809/2812 SCT030